sensor_id;sensor_type;location;lat;lon;timestamp;P1;durP1;ratioP1;P2;durP2;ratioP2
76377;SDS011;65200;49.500;8.654;2023-02-28T00:01:11;5.30;;;3.47;;
76377;SDS011;65200;49.500;8.654;2023-02-28T00:03:38;4.07;;;3.25;;
76377;SDS011;65200;49.500;8.654;2023-02-28T00:06:05;5.00;;;3.47;;
76377;SDS011;65200;49.500;8.654;2023-02-28T00:08:34;5.13;;;4.72;;
76377;SDS011;65200;49.500;8.654;2023-02-28T00:11:01;5.75;;;3.15;;
76377;SDS011;65200;49.500;8.654;2023-02-28T00:13:28;4.50;;;3.08;;
76377;SDS011;65200;49.500;8.654;2023-02-28T00:15:58;4.72;;;3.00;;
76377;SDS011;65200;49.500;8.654;2023-02-28T00:18:26;3.40;;;2.95;;
76377;SDS011;65200;49.500;8.654;2023-02-28T00:20:52;5.20;;;3.58;;
76377;SDS011;65200;49.500;8.654;2023-02-28T00:23:19;4.05;;;3.38;;
76377;SDS011;65200;49.500;8.654;2023-02-28T00:25:47;4.65;;;2.97;;
76377;SDS011;65200;49.500;8.654;2023-02-28T00:28:13;4.10;;;3.03;;
76377;SDS011;65200;49.500;8.654;2023-02-28T00:30:39;3.50;;;2.60;;
76377;SDS011;65200;49.500;8.654;2023-02-28T00:33:06;6.07;;;3.33;;
76377;SDS011;65200;49.500;8.654;2023-02-28T00:35:32;5.85;;;3.60;;
76377;SDS011;65200;49.500;8.654;2023-02-28T00:37:59;4.90;;;3.28;;
76377;SDS011;65200;49.500;8.654;2023-02-28T00:40:25;5.65;;;3.20;;
76377;SDS011;65200;49.500;8.654;2023-02-28T00:42:53;4.85;;;3.28;;
76377;SDS011;65200;49.500;8.654;2023-02-28T00:45:19;4.90;;;3.25;;
76377;SDS011;65200;49.500;8.654;2023-02-28T00:47:46;4.65;;;2.85;;
76377;SDS011;65200;49.500;8.654;2023-02-28T00:50:14;7.72;;;3.72;;
76377;SDS011;65200;49.500;8.654;2023-02-28T00:52:41;4.32;;;3.17;;
76377;SDS011;65200;49.500;8.654;2023-02-28T00:55:09;4.55;;;3.15;;
76377;SDS011;65200;49.500;8.654;2023-02-28T00:57:35;6.38;;;3.75;;
76377;SDS011;65200;49.500;8.654;2023-02-28T01:00:04;3.10;;;2.72;;
76377;SDS011;65200;49.500;8.654;2023-02-28T01:02:31;5.78;;;3.85;;
76377;SDS011;65200;49.500;8.654;2023-02-28T01:04:58;4.95;;;3.40;;
76377;SDS011;65200;49.500;8.654;2023-02-28T01:07:24;4.53;;;3.70;;
76377;SDS011;65200;49.500;8.654;2023-02-28T01:09:51;5.53;;;3.30;;
76377;SDS011;65200;49.500;8.654;2023-02-28T01:12:17;5.25;;;3.30;;
76377;SDS011;65200;49.500;8.654;2023-02-28T01:14:43;4.22;;;3.38;;
76377;SDS011;65200;49.500;8.654;2023-02-28T01:17:11;5.40;;;3.30;;
76377;SDS011;65200;49.500;8.654;2023-02-28T01:19:38;3.17;;;2.78;;
76377;SDS011;65200;49.500;8.654;2023-02-28T01:22:05;5.13;;;3.15;;
76377;SDS011;65200;49.500;8.654;2023-02-28T01:24:32;4.05;;;3.38;;
76377;SDS011;65200;49.500;8.654;2023-02-28T01:26:59;5.35;;;3.20;;
76377;SDS011;65200;49.500;8.654;2023-02-28T01:29:25;5.45;;;4.38;;
76377;SDS011;65200;49.500;8.654;2023-02-28T01:31:52;7.22;;;3.65;;
76377;SDS011;65200;49.500;8.654;2023-02-28T01:34:20;4.75;;;3.53;;
76377;SDS011;65200;49.500;8.654;2023-02-28T01:36:46;4.78;;;3.75;;
76377;SDS011;65200;49.500;8.654;2023-02-28T01:39:12;4.95;;;3.80;;
76377;SDS011;65200;49.500;8.654;2023-02-28T01:41:39;4.43;;;3.70;;
76377;SDS011;65200;49.500;8.654;2023-02-28T01:44:06;4.78;;;3.83;;
76377;SDS011;65200;49.500;8.654;2023-02-28T01:46:52;4.97;;;3.80;;
76377;SDS011;65200;49.500;8.654;2023-02-28T01:49:20;4.60;;;3.42;;
76377;SDS011;65200;49.500;8.654;2023-02-28T01:51:48;3.70;;;3.28;;
76377;SDS011;65200;49.500;8.654;2023-02-28T01:54:16;6.40;;;3.97;;
76377;SDS011;65200;49.500;8.654;2023-02-28T01:56:47;4.43;;;3.47;;
76377;SDS011;65200;49.500;8.654;2023-02-28T01:59:20;4.43;;;3.45;;
76377;SDS011;65200;49.500;8.654;2023-02-28T02:01:50;6.25;;;5.63;;
76377;SDS011;65200;49.500;8.654;2023-02-28T02:04:17;4.57;;;4.00;;
76377;SDS011;65200;49.500;8.654;2023-02-28T02:06:45;6.53;;;3.97;;
76377;SDS011;65200;49.500;8.654;2023-02-28T02:09:14;6.15;;;4.25;;
76377;SDS011;65200;49.500;8.654;2023-02-28T02:11:40;6.60;;;6.00;;
76377;SDS011;65200;49.500;8.654;2023-02-28T02:14:16;6.00;;;4.57;;
76377;SDS011;65200;49.500;8.654;2023-02-28T02:17:00;8.75;;;5.63;;
76377;SDS011;65200;49.500;8.654;2023-02-28T02:22:57;5.93;;;5.32;;
76377;SDS011;65200;49.500;8.654;2023-02-28T02:25:38;6.50;;;4.30;;
76377;SDS011;65200;49.500;8.654;2023-02-28T02:28:14;6.88;;;4.28;;
76377;SDS011;65200;49.500;8.654;2023-02-28T02:31:06;6.65;;;4.50;;
76377;SDS011;65200;49.500;8.654;2023-02-28T02:36:58;6.35;;;4.05;;
76377;SDS011;65200;49.500;8.654;2023-02-28T02:39:36;6.22;;;3.95;;
76377;SDS011;65200;49.500;8.654;2023-02-28T02:42:11;4.95;;;4.15;;
76377;SDS011;65200;49.500;8.654;2023-02-28T02:44:42;4.85;;;3.70;;
76377;SDS011;65200;49.500;8.654;2023-02-28T02:47:15;6.13;;;4.20;;
76377;SDS011;65200;49.500;8.654;2023-02-28T02:49:45;5.78;;;3.90;;
76377;SDS011;65200;49.500;8.654;2023-02-28T02:52:15;6.40;;;4.35;;
76377;SDS011;65200;49.500;8.654;2023-02-28T02:57:13;6.80;;;4.18;;
76377;SDS011;65200;49.500;8.654;2023-02-28T02:59:45;5.45;;;3.78;;
76377;SDS011;65200;49.500;8.654;2023-02-28T03:02:14;7.25;;;3.90;;
76377;SDS011;65200;49.500;8.654;2023-02-28T03:04:45;6.40;;;4.15;;
76377;SDS011;65200;49.500;8.654;2023-02-28T03:07:16;8.43;;;7.72;;
76377;SDS011;65200;49.500;8.654;2023-02-28T03:09:49;8.43;;;4.20;;
76377;SDS011;65200;49.500;8.654;2023-02-28T03:12:16;5.30;;;4.07;;
76377;SDS011;65200;49.500;8.654;2023-02-28T03:14:46;4.57;;;3.78;;
76377;SDS011;65200;49.500;8.654;2023-02-28T03:17:31;6.65;;;4.13;;
76377;SDS011;65200;49.500;8.654;2023-02-28T03:20:15;6.22;;;4.68;;
76377;SDS011;65200;49.500;8.654;2023-02-28T03:22:51;6.18;;;4.70;;
76377;SDS011;65200;49.500;8.654;2023-02-28T03:25:27;5.47;;;4.13;;
76377;SDS011;65200;49.500;8.654;2023-02-28T03:28:00;4.40;;;3.55;;
76377;SDS011;65200;49.500;8.654;2023-02-28T03:30:33;5.68;;;3.95;;
76377;SDS011;65200;49.500;8.654;2023-02-28T03:33:08;6.35;;;4.35;;
76377;SDS011;65200;49.500;8.654;2023-02-28T03:35:40;6.60;;;5.88;;
76377;SDS011;65200;49.500;8.654;2023-02-28T03:38:11;6.82;;;4.43;;
76377;SDS011;65200;49.500;8.654;2023-02-28T03:40:45;6.55;;;4.70;;
76377;SDS011;65200;49.500;8.654;2023-02-28T03:43:16;6.45;;;4.47;;
76377;SDS011;65200;49.500;8.654;2023-02-28T03:45:45;5.53;;;3.75;;
76377;SDS011;65200;49.500;8.654;2023-02-28T03:48:17;5.50;;;3.50;;
76377;SDS011;65200;49.500;8.654;2023-02-28T03:50:49;6.38;;;4.30;;
76377;SDS011;65200;49.500;8.654;2023-02-28T03:53:20;5.70;;;5.15;;
76377;SDS011;65200;49.500;8.654;2023-02-28T03:55:52;5.50;;;4.00;;
76377;SDS011;65200;49.500;8.654;2023-02-28T03:58:24;5.50;;;3.85;;
76377;SDS011;65200;49.500;8.654;2023-02-28T04:00:59;8.45;;;4.82;;
76377;SDS011;65200;49.500;8.654;2023-02-28T04:03:32;6.63;;;4.38;;
76377;SDS011;65200;49.500;8.654;2023-02-28T04:06:01;4.38;;;3.80;;
76377;SDS011;65200;49.500;8.654;2023-02-28T04:08:28;6.68;;;4.78;;
76377;SDS011;65200;49.500;8.654;2023-02-28T04:10:56;5.40;;;4.32;;
76377;SDS011;65200;49.500;8.654;2023-02-28T04:13:27;5.50;;;4.35;;
76377;SDS011;65200;49.500;8.654;2023-02-28T04:15:54;5.18;;;4.15;;
76377;SDS011;65200;49.500;8.654;2023-02-28T04:18:20;6.72;;;4.32;;
76377;SDS011;65200;49.500;8.654;2023-02-28T04:20:47;7.15;;;6.55;;
76377;SDS011;65200;49.500;8.654;2023-02-28T04:23:14;5.85;;;4.07;;
76377;SDS011;65200;49.500;8.654;2023-02-28T04:25:41;8.50;;;6.70;;
76377;SDS011;65200;49.500;8.654;2023-02-28T04:28:08;7.93;;;4.65;;
76377;SDS011;65200;49.500;8.654;2023-02-28T04:30:35;6.50;;;4.60;;
76377;SDS011;65200;49.500;8.654;2023-02-28T04:33:03;6.70;;;4.47;;
76377;SDS011;65200;49.500;8.654;2023-02-28T04:35:29;6.13;;;4.53;;
76377;SDS011;65200;49.500;8.654;2023-02-28T04:37:56;5.10;;;4.10;;
76377;SDS011;65200;49.500;8.654;2023-02-28T04:40:24;6.47;;;4.28;;
76377;SDS011;65200;49.500;8.654;2023-02-28T04:42:50;8.52;;;4.68;;
76377;SDS011;65200;49.500;8.654;2023-02-28T04:45:16;5.88;;;4.15;;
76377;SDS011;65200;49.500;8.654;2023-02-28T04:47:43;6.15;;;4.70;;
76377;SDS011;65200;49.500;8.654;2023-02-28T04:50:10;7.32;;;6.60;;
76377;SDS011;65200;49.500;8.654;2023-02-28T04:52:36;6.15;;;4.32;;
76377;SDS011;65200;49.500;8.654;2023-02-28T04:55:03;5.90;;;4.75;;
76377;SDS011;65200;49.500;8.654;2023-02-28T04:57:31;5.15;;;3.88;;
76377;SDS011;65200;49.500;8.654;2023-02-28T04:59:58;6.35;;;5.75;;
76377;SDS011;65200;49.500;8.654;2023-02-28T05:02:24;5.35;;;4.20;;
76377;SDS011;65200;49.500;8.654;2023-02-28T05:04:51;8.23;;;4.60;;
76377;SDS011;65200;49.500;8.654;2023-02-28T05:07:17;5.97;;;3.80;;
76377;SDS011;65200;49.500;8.654;2023-02-28T05:09:44;7.15;;;4.88;;
76377;SDS011;65200;49.500;8.654;2023-02-28T05:12:10;6.03;;;4.57;;
76377;SDS011;65200;49.500;8.654;2023-02-28T05:14:38;7.85;;;7.05;;
76377;SDS011;65200;49.500;8.654;2023-02-28T05:17:04;8.05;;;5.15;;
76377;SDS011;65200;49.500;8.654;2023-02-28T05:19:30;8.30;;;5.20;;
76377;SDS011;65200;49.500;8.654;2023-02-28T05:21:57;7.78;;;4.95;;
76377;SDS011;65200;49.500;8.654;2023-02-28T05:24:24;3.90;;;3.47;;
76377;SDS011;65200;49.500;8.654;2023-02-28T05:26:52;5.53;;;4.25;;
76377;SDS011;65200;49.500;8.654;2023-02-28T05:31:47;6.20;;;4.72;;
76377;SDS011;65200;49.500;8.654;2023-02-28T05:34:14;6.80;;;4.70;;
76377;SDS011;65200;49.500;8.654;2023-02-28T05:36:41;7.78;;;4.72;;
76377;SDS011;65200;49.500;8.654;2023-02-28T05:39:07;7.47;;;4.13;;
76377;SDS011;65200;49.500;8.654;2023-02-28T05:41:38;6.22;;;4.72;;
76377;SDS011;65200;49.500;8.654;2023-02-28T05:44:05;7.60;;;4.97;;
76377;SDS011;65200;49.500;8.654;2023-02-28T05:46:32;8.18;;;5.00;;
76377;SDS011;65200;49.500;8.654;2023-02-28T05:48:59;5.07;;;4.32;;
76377;SDS011;65200;49.500;8.654;2023-02-28T05:51:26;7.40;;;4.85;;
76377;SDS011;65200;49.500;8.654;2023-02-28T05:53:52;9.43;;;7.03;;
76377;SDS011;65200;49.500;8.654;2023-02-28T05:56:19;6.43;;;4.22;;
76377;SDS011;65200;49.500;8.654;2023-02-28T05:58:45;6.63;;;5.00;;
76377;SDS011;65200;49.500;8.654;2023-02-28T06:01:25;5.80;;;4.22;;
76377;SDS011;65200;49.500;8.654;2023-02-28T06:04:00;7.32;;;4.70;;
76377;SDS011;65200;49.500;8.654;2023-02-28T06:06:27;8.90;;;4.63;;
76377;SDS011;65200;49.500;8.654;2023-02-28T06:08:54;8.02;;;4.72;;
76377;SDS011;65200;49.500;8.654;2023-02-28T06:11:21;6.82;;;4.72;;
76377;SDS011;65200;49.500;8.654;2023-02-28T06:13:53;6.22;;;4.32;;
76377;SDS011;65200;49.500;8.654;2023-02-28T06:16:20;8.70;;;5.20;;
76377;SDS011;65200;49.500;8.654;2023-02-28T06:18:47;10.40;;;8.00;;
76377;SDS011;65200;49.500;8.654;2023-02-28T06:21:14;6.78;;;5.15;;
76377;SDS011;65200;49.500;8.654;2023-02-28T06:23:41;8.68;;;4.78;;
76377;SDS011;65200;49.500;8.654;2023-02-28T06:26:07;6.88;;;4.90;;
76377;SDS011;65200;49.500;8.654;2023-02-28T06:28:34;7.32;;;6.05;;
76377;SDS011;65200;49.500;8.654;2023-02-28T06:31:05;6.05;;;4.47;;
76377;SDS011;65200;49.500;8.654;2023-02-28T06:33:32;5.30;;;4.25;;
76377;SDS011;65200;49.500;8.654;2023-02-28T06:35:59;4.50;;;4.10;;
76377;SDS011;65200;49.500;8.654;2023-02-28T06:38:27;7.78;;;5.40;;
76377;SDS011;65200;49.500;8.654;2023-02-28T06:40:54;9.27;;;7.15;;
76377;SDS011;65200;49.500;8.654;2023-02-28T06:43:20;7.13;;;5.32;;
76377;SDS011;65200;49.500;8.654;2023-02-28T06:45:47;8.93;;;4.70;;
76377;SDS011;65200;49.500;8.654;2023-02-28T06:48:14;7.25;;;5.18;;
76377;SDS011;65200;49.500;8.654;2023-02-28T06:50:40;8.40;;;5.03;;
76377;SDS011;65200;49.500;8.654;2023-02-28T06:53:07;6.05;;;5.20;;
76377;SDS011;65200;49.500;8.654;2023-02-28T06:55:35;6.70;;;4.70;;
76377;SDS011;65200;49.500;8.654;2023-02-28T06:58:03;6.15;;;4.60;;
76377;SDS011;65200;49.500;8.654;2023-02-28T07:00:39;7.93;;;7.13;;
76377;SDS011;65200;49.500;8.654;2023-02-28T07:03:05;7.50;;;4.57;;
76377;SDS011;65200;49.500;8.654;2023-02-28T07:05:34;7.07;;;4.50;;
76377;SDS011;65200;49.500;8.654;2023-02-28T07:08:01;7.85;;;4.40;;
76377;SDS011;65200;49.500;8.654;2023-02-28T07:10:28;6.65;;;4.30;;
76377;SDS011;65200;49.500;8.654;2023-02-28T07:12:55;7.30;;;4.85;;
76377;SDS011;65200;49.500;8.654;2023-02-28T07:15:22;7.20;;;4.72;;
76377;SDS011;65200;49.500;8.654;2023-02-28T07:17:48;6.43;;;4.95;;
76377;SDS011;65200;49.500;8.654;2023-02-28T07:20:15;6.78;;;4.40;;
76377;SDS011;65200;49.500;8.654;2023-02-28T07:22:42;6.97;;;5.13;;
76377;SDS011;65200;49.500;8.654;2023-02-28T07:25:08;8.25;;;5.65;;
76377;SDS011;65200;49.500;8.654;2023-02-28T07:27:35;5.95;;;3.95;;
76377;SDS011;65200;49.500;8.654;2023-02-28T07:30:04;5.43;;;4.68;;
76377;SDS011;65200;49.500;8.654;2023-02-28T07:32:31;8.13;;;5.47;;
76377;SDS011;65200;49.500;8.654;2023-02-28T07:34:57;5.70;;;5.10;;
76377;SDS011;65200;49.500;8.654;2023-02-28T07:37:23;7.88;;;5.25;;
76377;SDS011;65200;49.500;8.654;2023-02-28T07:39:50;6.50;;;5.32;;
76377;SDS011;65200;49.500;8.654;2023-02-28T07:42:16;6.25;;;4.80;;
76377;SDS011;65200;49.500;8.654;2023-02-28T07:44:43;9.10;;;7.57;;
76377;SDS011;65200;49.500;8.654;2023-02-28T07:47:10;8.15;;;6.00;;
76377;SDS011;65200;49.500;8.654;2023-02-28T07:49:37;8.52;;;5.65;;
76377;SDS011;65200;49.500;8.654;2023-02-28T07:52:04;8.30;;;5.13;;
76377;SDS011;65200;49.500;8.654;2023-02-28T07:54:32;6.25;;;5.25;;
76377;SDS011;65200;49.500;8.654;2023-02-28T07:56:58;4.80;;;4.03;;
76377;SDS011;65200;49.500;8.654;2023-02-28T07:59:25;6.25;;;5.22;;
76377;SDS011;65200;49.500;8.654;2023-02-28T08:01:52;7.07;;;5.10;;
76377;SDS011;65200;49.500;8.654;2023-02-28T08:04:20;6.90;;;5.30;;
76377;SDS011;65200;49.500;8.654;2023-02-28T08:06:46;5.85;;;4.00;;
76377;SDS011;65200;49.500;8.654;2023-02-28T08:09:12;9.13;;;5.00;;
76377;SDS011;65200;49.500;8.654;2023-02-28T08:11:39;9.82;;;5.90;;
76377;SDS011;65200;49.500;8.654;2023-02-28T08:14:05;8.23;;;4.53;;
76377;SDS011;65200;49.500;8.654;2023-02-28T08:16:32;5.90;;;5.22;;
76377;SDS011;65200;49.500;8.654;2023-02-28T08:18:58;6.10;;;5.50;;
76377;SDS011;65200;49.500;8.654;2023-02-28T08:21:26;6.35;;;4.30;;
76377;SDS011;65200;49.500;8.654;2023-02-28T08:23:52;6.90;;;5.07;;
76377;SDS011;65200;49.500;8.654;2023-02-28T08:26:19;12.27;;;5.57;;
76377;SDS011;65200;49.500;8.654;2023-02-28T08:28:46;5.55;;;4.60;;
76377;SDS011;65200;49.500;8.654;2023-02-28T08:31:13;7.40;;;5.00;;
76377;SDS011;65200;49.500;8.654;2023-02-28T08:33:41;7.25;;;5.63;;
76377;SDS011;65200;49.500;8.654;2023-02-28T08:36:09;8.65;;;6.03;;
76377;SDS011;65200;49.500;8.654;2023-02-28T08:38:38;7.75;;;5.35;;
76377;SDS011;65200;49.500;8.654;2023-02-28T08:41:05;9.85;;;6.30;;
76377;SDS011;65200;49.500;8.654;2023-02-28T08:43:33;8.73;;;5.78;;
76377;SDS011;65200;49.500;8.654;2023-02-28T08:46:00;9.57;;;5.10;;
76377;SDS011;65200;49.500;8.654;2023-02-28T08:48:27;5.53;;;4.72;;
76377;SDS011;65200;49.500;8.654;2023-02-28T08:50:55;6.93;;;5.93;;
76377;SDS011;65200;49.500;8.654;2023-02-28T08:53:23;8.07;;;5.32;;
76377;SDS011;65200;49.500;8.654;2023-02-28T08:55:56;6.85;;;4.15;;
76377;SDS011;65200;49.500;8.654;2023-02-28T08:58:23;8.20;;;5.43;;
76377;SDS011;65200;49.500;8.654;2023-02-28T09:00:50;9.57;;;6.22;;
76377;SDS011;65200;49.500;8.654;2023-02-28T09:03:16;8.50;;;6.15;;
76377;SDS011;65200;49.500;8.654;2023-02-28T09:05:51;8.18;;;6.40;;
76377;SDS011;65200;49.500;8.654;2023-02-28T09:08:18;11.95;;;8.90;;
76377;SDS011;65200;49.500;8.654;2023-02-28T09:10:44;8.93;;;6.13;;
76377;SDS011;65200;49.500;8.654;2023-02-28T09:13:12;11.27;;;6.10;;
76377;SDS011;65200;49.500;8.654;2023-02-28T09:15:38;4.97;;;4.45;;
76377;SDS011;65200;49.500;8.654;2023-02-28T09:18:05;9.63;;;6.35;;
76377;SDS011;65200;49.500;8.654;2023-02-28T09:20:31;10.32;;;5.72;;
76377;SDS011;65200;49.500;8.654;2023-02-28T09:22:58;5.63;;;5.05;;
76377;SDS011;65200;49.500;8.654;2023-02-28T09:25:24;11.80;;;6.38;;
76377;SDS011;65200;49.500;8.654;2023-02-28T09:27:51;8.43;;;5.95;;
76377;SDS011;65200;49.500;8.654;2023-02-28T09:30:18;8.30;;;5.50;;
76377;SDS011;65200;49.500;8.654;2023-02-28T09:32:45;7.07;;;5.40;;
76377;SDS011;65200;49.500;8.654;2023-02-28T09:35:17;11.25;;;6.32;;
76377;SDS011;65200;49.500;8.654;2023-02-28T09:37:44;7.85;;;5.43;;
76377;SDS011;65200;49.500;8.654;2023-02-28T09:40:11;10.18;;;6.78;;
76377;SDS011;65200;49.500;8.654;2023-02-28T09:42:39;8.30;;;5.72;;
76377;SDS011;65200;49.500;8.654;2023-02-28T09:45:10;10.50;;;6.20;;
76377;SDS011;65200;49.500;8.654;2023-02-28T09:47:46;10.70;;;7.15;;
76377;SDS011;65200;49.500;8.654;2023-02-28T09:50:17;6.85;;;5.97;;
76377;SDS011;65200;49.500;8.654;2023-02-28T09:52:54;7.93;;;6.90;;
76377;SDS011;65200;49.500;8.654;2023-02-28T09:55:22;7.88;;;4.45;;
76377;SDS011;65200;49.500;8.654;2023-02-28T09:57:54;7.85;;;4.95;;
76377;SDS011;65200;49.500;8.654;2023-02-28T10:00:26;8.60;;;5.95;;
76377;SDS011;65200;49.500;8.654;2023-02-28T10:03:06;23.88;;;14.70;;
76377;SDS011;65200;49.500;8.654;2023-02-28T10:05:48;8.50;;;5.95;;
76377;SDS011;65200;49.500;8.654;2023-02-28T10:08:19;8.45;;;5.38;;
76377;SDS011;65200;49.500;8.654;2023-02-28T10:10:51;7.15;;;6.18;;
76377;SDS011;65200;49.500;8.654;2023-02-28T10:13:21;7.75;;;6.30;;
76377;SDS011;65200;49.500;8.654;2023-02-28T10:15:52;9.55;;;5.70;;
76377;SDS011;65200;49.500;8.654;2023-02-28T10:18:24;8.65;;;5.65;;
76377;SDS011;65200;49.500;8.654;2023-02-28T10:20:55;7.78;;;5.53;;
76377;SDS011;65200;49.500;8.654;2023-02-28T10:23:23;8.90;;;5.20;;
76377;SDS011;65200;49.500;8.654;2023-02-28T10:25:54;9.25;;;7.45;;
76377;SDS011;65200;49.500;8.654;2023-02-28T10:28:24;9.40;;;6.47;;
76377;SDS011;65200;49.500;8.654;2023-02-28T10:30:52;8.13;;;5.82;;
76377;SDS011;65200;49.500;8.654;2023-02-28T10:33:22;7.93;;;6.20;;
76377;SDS011;65200;49.500;8.654;2023-02-28T10:35:51;9.02;;;6.10;;
76377;SDS011;65200;49.500;8.654;2023-02-28T10:38:19;8.70;;;7.03;;
76377;SDS011;65200;49.500;8.654;2023-02-28T10:40:49;8.18;;;6.20;;
76377;SDS011;65200;49.500;8.654;2023-02-28T10:43:18;7.18;;;5.88;;
76377;SDS011;65200;49.500;8.654;2023-02-28T10:45:53;7.07;;;5.32;;
76377;SDS011;65200;49.500;8.654;2023-02-28T10:48:29;8.68;;;6.13;;
76377;SDS011;65200;49.500;8.654;2023-02-28T10:50:58;9.48;;;5.97;;
76377;SDS011;65200;49.500;8.654;2023-02-28T10:53:30;7.65;;;6.85;;
76377;SDS011;65200;49.500;8.654;2023-02-28T10:56:02;9.65;;;5.97;;
76377;SDS011;65200;49.500;8.654;2023-02-28T10:58:30;8.00;;;5.82;;
76377;SDS011;65200;49.500;8.654;2023-02-28T11:01:12;9.57;;;6.57;;
76377;SDS011;65200;49.500;8.654;2023-02-28T11:03:42;8.93;;;6.47;;
76377;SDS011;65200;49.500;8.654;2023-02-28T11:06:13;9.25;;;6.50;;
76377;SDS011;65200;49.500;8.654;2023-02-28T11:08:43;8.38;;;7.07;;
76377;SDS011;65200;49.500;8.654;2023-02-28T11:11:12;10.13;;;7.07;;
76377;SDS011;65200;49.500;8.654;2023-02-28T11:13:39;8.88;;;7.13;;
76377;SDS011;65200;49.500;8.654;2023-02-28T11:16:07;8.85;;;6.43;;
76377;SDS011;65200;49.500;8.654;2023-02-28T11:18:37;10.63;;;8.63;;
76377;SDS011;65200;49.500;8.654;2023-02-28T11:21:09;8.93;;;5.60;;
76377;SDS011;65200;49.500;8.654;2023-02-28T11:23:43;9.77;;;6.00;;
76377;SDS011;65200;49.500;8.654;2023-02-28T11:26:10;9.65;;;7.65;;
76377;SDS011;65200;49.500;8.654;2023-02-28T11:28:37;8.05;;;6.32;;
76377;SDS011;65200;49.500;8.654;2023-02-28T11:31:14;8.07;;;6.75;;
76377;SDS011;65200;49.500;8.654;2023-02-28T11:33:45;6.63;;;5.55;;
76377;SDS011;65200;49.500;8.654;2023-02-28T11:36:18;6.20;;;5.15;;
76377;SDS011;65200;49.500;8.654;2023-02-28T11:38:46;9.40;;;6.15;;
76377;SDS011;65200;49.500;8.654;2023-02-28T11:41:22;8.30;;;6.45;;
76377;SDS011;65200;49.500;8.654;2023-02-28T11:44:03;6.63;;;5.50;;
76377;SDS011;65200;49.500;8.654;2023-02-28T11:46:38;9.88;;;6.60;;
76377;SDS011;65200;49.500;8.654;2023-02-28T11:49:15;7.70;;;5.70;;
76377;SDS011;65200;49.500;8.654;2023-02-28T11:51:53;8.65;;;6.43;;
76377;SDS011;65200;49.500;8.654;2023-02-28T11:54:30;10.38;;;6.30;;
76377;SDS011;65200;49.500;8.654;2023-02-28T11:57:15;9.95;;;6.47;;
76377;SDS011;65200;49.500;8.654;2023-02-28T11:59:53;12.18;;;7.50;;
76377;SDS011;65200;49.500;8.654;2023-02-28T12:02:28;8.18;;;6.10;;
76377;SDS011;65200;49.500;8.654;2023-02-28T12:05:05;9.27;;;6.60;;
76377;SDS011;65200;49.500;8.654;2023-02-28T12:07:46;7.30;;;6.28;;
76377;SDS011;65200;49.500;8.654;2023-02-28T12:10:21;8.68;;;7.15;;
76377;SDS011;65200;49.500;8.654;2023-02-28T12:12:54;9.05;;;6.82;;
76377;SDS011;65200;49.500;8.654;2023-02-28T12:15:37;8.40;;;6.55;;
76377;SDS011;65200;49.500;8.654;2023-02-28T12:18:22;8.25;;;6.18;;
76377;SDS011;65200;49.500;8.654;2023-02-28T12:21:01;7.95;;;6.40;;
76377;SDS011;65200;49.500;8.654;2023-02-28T12:26:30;8.38;;;6.55;;
76377;SDS011;65200;49.500;8.654;2023-02-28T12:29:04;9.95;;;6.25;;
76377;SDS011;65200;49.500;8.654;2023-02-28T12:31:40;10.50;;;6.28;;
76377;SDS011;65200;49.500;8.654;2023-02-28T12:34:11;6.90;;;5.72;;
76377;SDS011;65200;49.500;8.654;2023-02-28T12:36:41;7.80;;;6.63;;
76377;SDS011;65200;49.500;8.654;2023-02-28T12:41:42;8.07;;;6.30;;
76377;SDS011;65200;49.500;8.654;2023-02-28T12:44:13;7.88;;;5.30;;
76377;SDS011;65200;49.500;8.654;2023-02-28T12:46:44;8.18;;;6.63;;
76377;SDS011;65200;49.500;8.654;2023-02-28T12:49:15;10.77;;;7.35;;
76377;SDS011;65200;49.500;8.654;2023-02-28T12:51:43;7.05;;;6.28;;
76377;SDS011;65200;49.500;8.654;2023-02-28T12:54:14;9.55;;;7.28;;
76377;SDS011;65200;49.500;8.654;2023-02-28T12:56:47;9.27;;;6.53;;
76377;SDS011;65200;49.500;8.654;2023-02-28T12:59:22;12.27;;;7.30;;
76377;SDS011;65200;49.500;8.654;2023-02-28T13:01:56;10.50;;;7.00;;
76377;SDS011;65200;49.500;8.654;2023-02-28T13:04:34;9.20;;;6.13;;
76377;SDS011;65200;49.500;8.654;2023-02-28T13:07:30;9.38;;;7.60;;
76377;SDS011;65200;49.500;8.654;2023-02-28T13:10:19;8.43;;;6.65;;
76377;SDS011;65200;49.500;8.654;2023-02-28T13:12:49;9.90;;;7.00;;
76377;SDS011;65200;49.500;8.654;2023-02-28T13:15:18;12.05;;;6.72;;
76377;SDS011;65200;49.500;8.654;2023-02-28T13:17:49;9.75;;;6.90;;
76377;SDS011;65200;49.500;8.654;2023-02-28T13:20:17;11.05;;;7.10;;
76377;SDS011;65200;49.500;8.654;2023-02-28T13:22:46;9.15;;;7.10;;
76377;SDS011;65200;49.500;8.654;2023-02-28T13:31:31;9.05;;;6.50;;
76377;SDS011;65200;49.500;8.654;2023-02-28T13:36:41;11.35;;;7.28;;
76377;SDS011;65200;49.500;8.654;2023-02-28T13:42:31;10.15;;;7.35;;
76377;SDS011;65200;49.500;8.654;2023-02-28T13:45:20;8.23;;;6.60;;
76377;SDS011;65200;49.500;8.654;2023-02-28T13:47:52;13.07;;;7.65;;
76377;SDS011;65200;49.500;8.654;2023-02-28T13:50:22;10.15;;;7.22;;
76377;SDS011;65200;49.500;8.654;2023-02-28T13:53:21;9.07;;;6.18;;
76377;SDS011;65200;49.500;8.654;2023-02-28T13:56:06;9.35;;;7.57;;
76377;SDS011;65200;49.500;8.654;2023-02-28T13:58:48;12.52;;;7.13;;
76377;SDS011;65200;49.500;8.654;2023-02-28T14:01:31;10.07;;;7.07;;
76377;SDS011;65200;49.500;8.654;2023-02-28T14:04:21;8.95;;;7.22;;
76377;SDS011;65200;49.500;8.654;2023-02-28T14:07:09;11.45;;;7.82;;
76377;SDS011;65200;49.500;8.654;2023-02-28T14:09:45;8.60;;;7.18;;
76377;SDS011;65200;49.500;8.654;2023-02-28T14:15:27;11.57;;;6.85;;
76377;SDS011;65200;49.500;8.654;2023-02-28T14:18:23;11.93;;;8.38;;
76377;SDS011;65200;49.500;8.654;2023-02-28T14:20:53;8.65;;;7.13;;
76377;SDS011;65200;49.500;8.654;2023-02-28T14:26:31;11.57;;;8.80;;
76377;SDS011;65200;49.500;8.654;2023-02-28T14:29:17;10.25;;;6.90;;
76377;SDS011;65200;49.500;8.654;2023-02-28T14:32:02;11.13;;;7.57;;
76377;SDS011;65200;49.500;8.654;2023-02-28T14:34:39;9.48;;;6.90;;
76377;SDS011;65200;49.500;8.654;2023-02-28T14:37:13;8.63;;;6.85;;
76377;SDS011;65200;49.500;8.654;2023-02-28T14:39:45;10.10;;;8.18;;
76377;SDS011;65200;49.500;8.654;2023-02-28T14:42:28;10.30;;;6.95;;
76377;SDS011;65200;49.500;8.654;2023-02-28T14:44:56;9.15;;;7.15;;
76377;SDS011;65200;49.500;8.654;2023-02-28T14:47:25;9.40;;;7.20;;
76377;SDS011;65200;49.500;8.654;2023-02-28T14:49:54;9.63;;;7.40;;
76377;SDS011;65200;49.500;8.654;2023-02-28T14:52:22;11.55;;;8.00;;
76377;SDS011;65200;49.500;8.654;2023-02-28T14:54:52;9.70;;;6.65;;
76377;SDS011;65200;49.500;8.654;2023-02-28T14:57:21;11.63;;;8.80;;
76377;SDS011;65200;49.500;8.654;2023-02-28T14:59:56;11.57;;;8.65;;
76377;SDS011;65200;49.500;8.654;2023-02-28T15:02:26;11.63;;;6.97;;
76377;SDS011;65200;49.500;8.654;2023-02-28T15:04:57;11.80;;;7.65;;
76377;SDS011;65200;49.500;8.654;2023-02-28T15:07:26;10.05;;;7.68;;
76377;SDS011;65200;49.500;8.654;2023-02-28T15:10:08;10.68;;;8.93;;
76377;SDS011;65200;49.500;8.654;2023-02-28T15:12:41;9.43;;;6.53;;
76377;SDS011;65200;49.500;8.654;2023-02-28T15:15:15;8.77;;;6.55;;
76377;SDS011;65200;49.500;8.654;2023-02-28T15:17:45;7.65;;;6.30;;
76377;SDS011;65200;49.500;8.654;2023-02-28T15:20:15;10.07;;;7.10;;
76377;SDS011;65200;49.500;8.654;2023-02-28T15:22:43;11.00;;;8.43;;
76377;SDS011;65200;49.500;8.654;2023-02-28T15:25:13;10.25;;;7.55;;
76377;SDS011;65200;49.500;8.654;2023-02-28T15:27:45;9.60;;;6.97;;
76377;SDS011;65200;49.500;8.654;2023-02-28T15:30:16;9.65;;;7.68;;
76377;SDS011;65200;49.500;8.654;2023-02-28T15:33:01;12.25;;;8.80;;
76377;SDS011;65200;49.500;8.654;2023-02-28T15:35:30;8.77;;;6.57;;
76377;SDS011;65200;49.500;8.654;2023-02-28T15:38:00;10.70;;;7.88;;
76377;SDS011;65200;49.500;8.654;2023-02-28T15:40:28;13.43;;;8.25;;